Time;durP1;ratioP1;P1;durP2;ratioP2;P2;SDS_P1;SDS_P2;PMS_P1;PMS_P2;Temp;Humidity;BMP_temperature;BMP_pressure;BME280_temperature;BME280_humidity;BME280_pressure;Samples;Min_cycle;Max_cycle;Signal;HPM_P1;HPM_P2
2022/09/18 00:02:04;;;;;;;;;;;13.40;99.90;;;;;;5033989;28;20258;-81
2022/09/18 00:04:36;;;;;;;;;;;13.30;99.90;;;;;;5023146;28;19936;-80
2022/09/18 00:07:04;;;;;;;;;;;13.30;99.90;;;;;;5033333;28;19909;-80
2022/09/18 00:12:52;;;;;;;;;;;13.30;99.90;;;;;;5006566;28;19984;-80
2022/09/18 00:38:00;;;;;;;;;;;;;;;;;;;;;
2022/09/18 01:56:02;;;;;;;;;;;;;;;;;;;;;
2022/09/18 01:59:49;;;;;;;;;;;;;;;;;;;;;
2022/09/18 02:02:24;;;;;;;;;;;13.20;99.90;;;;;;4819333;29;20018;-79
2022/09/18 03:00:55;;;;;;;;;;;;;;;;;;;;;
2022/09/18 03:16:32;;;;;;;;;;;;;;;;;;;;;
2022/09/18 03:56:37;;;;;;;;;;;;;;;;;;;;;
2022/09/18 04:11:45;;;;;;;;;;;13.80;99.90;;;;;;4793029;30;19924;-79
2022/09/18 04:14:52;;;;;;;;;;;13.80;99.90;;;;;;4801920;29;19948;-80
2022/09/18 05:17:40;;;;;;;;;;;14.00;99.90;;;;;;4886838;29;19935;-79
2022/09/18 05:20:13;;;;;;;;;;;13.90;99.90;;;;;;4889676;29;19916;-80
2022/09/18 05:26:16;;;;;;;;;;;13.90;99.90;;;;;;4856405;29;19944;-79
2022/09/18 05:35:30;;;;;;;;;;;13.90;99.90;;;;;;4866011;29;20074;-80
2022/09/18 05:54:16;;;;;;;;;;;;;;;;;;;;;
2022/09/18 05:56:45;;;;;;;;;;;14.00;99.90;;;;;;4874359;29;20005;-79
2022/09/18 05:59:17;;;;;;;;;;;14.00;99.90;;;;;;4992197;28;19953;-79
2022/09/18 06:02:02;;;;;;;;;;;;;;;;;;;;;
2022/09/18 06:07:49;;;;;;;;;;;14.20;99.90;;;;;;5020381;28;19918;-80
2022/09/18 06:19:48;;;;;;;;;;;;;;;;;;;;;
2022/09/18 06:22:55;;;;;;;;;;;14.40;99.90;;;;;;4930994;28;20111;-79
2022/09/18 06:25:23;;;;;;;;;;;14.60;99.90;;;;;;5017051;28;20501;-80
2022/09/18 06:28:07;;;;;;;;;;;14.70;99.90;;;;;;5021607;28;19919;-80
2022/09/18 06:30:33;;;;;;;;;;;14.80;99.90;;;;;;5018821;28;19937;-79
2022/09/18 06:33:19;;;;;;;;;;;14.90;99.90;;;;;;5021313;28;19909;-79
2022/09/18 06:36:01;;;;;;;;;;;15.00;99.90;;;;;;5006638;28;19917;-79
2022/09/18 06:41:33;;;;;;;;;;;15.30;99.90;;;;;;5039916;28;20536;-79
2022/09/18 06:44:04;;;;;;;;;;;15.50;99.90;;;;;;5043031;28;19909;-80
2022/09/18 06:59:44;;;;;;;;;;;16.30;99.90;;;;;;4866461;29;20019;-80
2022/09/18 07:02:15;;;;;;;;;;;16.40;99.90;;;;;;4919557;29;19965;-79
2022/09/18 07:04:41;;;;;;;;;;;16.40;99.90;;;;;;5009429;28;19909;-79
2022/09/18 07:07:22;;;;;;;;;;;16.50;99.90;;;;;;5047368;28;19917;-80
2022/09/18 07:10:10;;;;;;;;;;;16.70;99.90;;;;;;5045777;28;19920;-81
2022/09/18 07:16:24;;;;;;;;;;;17.00;99.90;;;;;;5061179;28;20019;-80
2022/09/18 07:18:31;;;;;;;;;;;17.20;99.90;;;;;;5127966;22;19910;-79
2022/09/18 07:20:58;;;;;;;;;;;17.30;99.90;;;;;;5009292;28;19909;-79
2022/09/18 07:23:24;;;;;;;;;;;17.30;99.90;;;;;;5008679;28;19970;-80
2022/09/18 07:25:49;;;;;;;;;;;17.40;99.90;;;;;;5008286;28;20419;-79
2022/09/18 07:28:15;;;;;;;;;;;17.60;99.90;;;;;;5005737;28;20332;-79
2022/09/18 07:30:41;;;;;;;;;;;17.80;99.90;;;;;;4996367;28;19906;-79
2022/09/18 07:33:07;;;;;;;;;;;18.00;99.90;;;;;;4988798;28;20395;-79
2022/09/18 07:35:34;;;;;;;;;;;18.10;99.90;;;;;;4988447;28;19918;-79
2022/09/18 07:38:00;;;;;;;;;;;18.20;99.90;;;;;;4992430;28;19924;-79
2022/09/18 07:40:26;;;;;;;;;;;18.20;99.90;;;;;;5007363;28;19973;-79
2022/09/18 07:42:57;;;;;;;;;;;18.20;99.90;;;;;;5007548;28;19920;-80
2022/09/18 07:45:23;;;;;;;;;;;18.30;99.90;;;;;;5006318;28;19906;-79
2022/09/18 07:47:49;;;;;;;;;;;18.50;99.90;;;;;;5008312;28;19975;-79
2022/09/18 07:50:15;;;;;;;;;;;18.60;99.90;;;;;;5008049;28;19940;-79
2022/09/18 07:52:51;;;;;;;;;;;18.60;99.90;;;;;;5007335;28;19945;-80
2022/09/18 07:55:18;;;;;;;;;;;18.70;99.90;;;;;;5007776;28;19981;-80
2022/09/18 07:58:04;;;;;;;;;;;;;;;;;;;;;
2022/09/18 08:03:58;;;;;;;;;;;19.40;99.90;;;;;;4986601;28;19906;-79
2022/09/18 08:09:25;;;;;;;;;;;19.70;99.90;;;;;;4952241;28;19905;-80
2022/09/18 08:11:54;;;;;;;;;;;20.00;99.90;;;;;;5008189;28;19905;-79
2022/09/18 08:14:31;;;;;;;;;;;20.20;99.90;;;;;;5008977;28;20295;-79
2022/09/18 08:16:57;;;;;;;;;;;20.40;99.90;;;;;;4988984;28;19968;-80
2022/09/18 08:23:25;;;;;;;;;;;20.00;99.90;;;;;;4932600;29;19910;-79
2022/09/18 08:25:40;;;;;;;;;;;19.90;99.90;;;;;;4935992;29;19918;-79
2022/09/18 08:28:46;;;;;;;;;;;19.90;99.90;;;;;;4968643;28;19910;-79
2022/09/18 08:37:18;;;;;;;;;;;20.30;99.90;;;;;;4915479;29;20115;-79
2022/09/18 08:39:55;;;;;;;;;;;20.50;99.90;;;;;;4916865;29;19959;-78
2022/09/18 08:42:39;;;;;;;;;;;20.60;99.90;;;;;;4981279;28;19981;-79
2022/09/18 08:45:33;;;;;;;;;;;20.80;99.90;;;;;;5006654;28;19992;-78
2022/09/18 08:51:33;;;;;;;;;;;20.90;99.90;;;;;;4874869;29;19922;-79
2022/09/18 08:54:16;;;;;;;;;;;20.80;99.90;;;;;;4855037;29;19915;-79
2022/09/18 08:56:45;;;;;;;;;;;20.90;99.90;;;;;;4997410;28;19993;-79
2022/09/18 09:02:20;;;;;;;;;;;20.60;99.90;;;;;;4966335;28;19934;-79
2022/09/18 09:05:41;;;;;;;;;;;20.50;99.90;;;;;;5006236;28;19910;-79
2022/09/18 09:08:04;;;;;;;;;;;20.40;99.90;;;;;;4991724;28;19909;-79
2022/09/18 09:10:49;;;;;;;;;;;;;;;;;;;;;
2022/09/18 09:16:32;;;;;;;;;;;20.50;99.90;;;;;;4993138;28;19937;-78
2022/09/18 09:25:49;;;;;;;;;;;20.40;99.90;;;;;;4985548;28;19992;-78
2022/09/18 09:31:34;;;;;;;;;;;20.10;99.90;;;;;;4993525;28;19967;-78
2022/09/18 09:34:31;;;;;;;;;;;20.10;99.90;;;;;;4994012;28;19910;-78
2022/09/18 09:37:42;;;;;;;;;;;;;;;;;;;;;
2022/09/18 09:55:46;;;;;;;;;;;19.90;99.90;;;;;;4899534;29;20400;-78
2022/09/18 10:29:10;;;;;;;;;;;19.90;99.90;;;;;;4900356;29;19925;-77
2022/09/18 10:31:58;;;;;;;;;;;19.90;99.90;;;;;;4882627;29;19915;-78
2022/09/18 10:34:47;;;;;;;;;;;19.80;99.90;;;;;;4934914;28;19906;-79
2022/09/18 10:37:52;;;;;;;;;;;19.80;99.90;;;;;;4976269;28;20315;-78
2022/09/18 10:40:38;;;;;;;;;;;19.80;99.90;;;;;;4972591;28;19914;-78
2022/09/18 10:43:19;;;;;;;;;;;19.80;99.90;;;;;;4996732;28;19961;-78
2022/09/18 10:45:50;;;;;;;;;;;19.80;99.90;;;;;;4998108;28;19910;-78
2022/09/18 10:48:23;;;;;;;;;;;19.70;99.90;;;;;;4998101;28;19916;-78
2022/09/18 10:50:53;;;;;;;;;;;19.80;99.90;;;;;;4979784;28;20311;-79
2022/09/18 10:56:41;;;;;;;;;;;19.80;99.90;;;;;;4967585;28;19914;-73
2022/09/18 10:59:33;;;;;;;;;;;19.80;99.90;;;;;;4964646;28;19914;-72
2022/09/18 11:02:00;;;;;;;;;;;19.80;99.90;;;;;;4972199;28;20291;-73
2022/09/18 11:04:27;;;;;;;;;;;19.90;99.90;;;;;;4976755;28;20511;-73
2022/09/18 11:07:01;;;;;;;;;;;20.00;99.90;;;;;;4993763;28;19913;-73
2022/09/18 11:10:03;;;;;;;;;;;20.00;99.90;;;;;;4977899;28;20421;-73
2022/09/18 11:15:53;;;;;;;;;;;19.90;99.90;;;;;;4990950;28;19963;-73
2022/09/18 11:18:29;;;;;;;;;;;20.00;99.90;;;;;;4995266;28;19910;-72
2022/09/18 11:20:56;;;;;;;;;;;19.90;99.90;;;;;;4987185;28;19906;-72
2022/09/18 11:24:01;;;;;;;;;;;;;;;;;;;;;
2022/09/18 11:26:30;;;;;;;;;;;19.90;99.90;;;;;;4966044;28;20390;-73
2022/09/18 11:32:42;;;;;;;;;;;20.10;99.90;;;;;;4991031;28;19921;-74
2022/09/18 11:35:32;;;;;;;;;;;20.10;99.90;;;;;;4994863;28;19941;-73
2022/09/18 11:44:25;;;;;;;;;;;20.10;99.90;;;;;;4999773;28;20007;-74
2022/09/18 11:47:08;;;;;;;;;;;20.10;99.90;;;;;;4997320;28;19972;-74
2022/09/18 11:49:39;;;;;;;;;;;20.10;99.90;;;;;;5003309;28;19964;-73
2022/09/18 11:52:17;;;;;;;;;;;20.20;99.90;;;;;;5001439;28;19906;-74
2022/09/18 11:54:58;;;;;;;;;;;20.10;99.90;;;;;;4997228;28;19910;-73
2022/09/18 11:57:34;;;;;;;;;;;20.10;99.90;;;;;;4979090;28;19968;-74
2022/09/18 12:00:04;;;;;;;;;;;20.20;99.90;;;;;;4992469;28;19995;-74
2022/09/18 12:02:43;;;;;;;;;;;20.30;99.90;;;;;;4996813;28;19905;-74
2022/09/18 12:05:24;;;;;;;;;;;20.40;99.90;;;;;;4993051;28;20752;-74
2022/09/18 12:08:09;;;;;;;;;;;20.40;99.90;;;;;;4988740;28;19929;-73
2022/09/18 12:10:38;;;;;;;;;;;20.50;99.90;;;;;;4991495;28;20395;-74
2022/09/18 12:13:36;;;;;;;;;;;20.40;99.90;;;;;;4986856;28;20260;-73
2022/09/18 12:16:08;;;;;;;;;;;20.40;99.90;;;;;;4946933;28;19949;-74
2022/09/18 12:18:42;;;;;;;;;;;20.40;99.90;;;;;;4993147;28;19910;-74
2022/09/18 12:21:14;;;;;;;;;;;20.50;99.90;;;;;;4992575;28;20550;-73
2022/09/18 12:23:41;;;;;;;;;;;20.50;99.90;;;;;;4977078;28;19909;-76
2022/09/18 12:26:11;;;;;;;;;;;20.50;99.90;;;;;;4978447;28;20022;-74
2022/09/18 12:28:55;;;;;;;;;;;20.60;99.90;;;;;;4977272;28;20302;-73
2022/09/18 12:31:39;;;;;;;;;;;20.60;99.90;;;;;;4991628;28;19910;-73
2022/09/18 12:40:43;;;;;;;;;;;20.70;99.90;;;;;;4990464;28;19960;-74
2022/09/18 12:46:47;;;;;;;;;;;20.60;99.90;;;;;;4992900;28;19924;-74
2022/09/18 12:52:35;;;;;;;;;;;20.70;99.90;;;;;;4976296;28;19913;-74
2022/09/18 12:58:34;;;;;;;;;;;20.60;99.90;;;;;;4990241;28;19924;-72
2022/09/18 13:04:25;;;;;;;;;;;20.60;99.90;;;;;;4975985;28;19925;-73
2022/09/18 13:09:58;;;;;;;;;;;20.70;99.90;;;;;;4989033;28;20026;-73
2022/09/18 13:12:49;;;;;;;;;;;20.70;99.90;;;;;;4993860;28;20432;-74
2022/09/18 13:15:45;;;;;;;;;;;20.80;99.90;;;;;;4986594;28;20024;-73
2022/09/18 13:18:37;;;;;;;;;;;20.90;99.90;;;;;;4992227;28;19999;-73
2022/09/18 13:21:06;;;;;;;;;;;20.90;99.90;;;;;;4967513;28;19916;-73
2022/09/18 13:23:53;;;;;;;;;;;21.00;99.90;;;;;;4996701;28;20047;-74
2022/09/18 13:26:29;;;;;;;;;;;21.10;99.90;;;;;;4975663;28;19925;-76
2022/09/18 13:28:55;;;;;;;;;;;21.20;99.90;;;;;;4979898;28;20394;-73
2022/09/18 13:31:47;;;;;;;;;;;21.10;99.90;;;;;;4979885;28;19909;-74
2022/09/18 13:34:19;;;;;;;;;;;21.20;99.90;;;;;;4997311;28;19910;-74
2022/09/18 13:36:49;;;;;;;;;;;21.20;99.90;;;;;;4997317;28;19940;-74
2022/09/18 13:39:17;;;;;;;;;;;21.40;99.90;;;;;;4993803;28;19910;-73
2022/09/18 13:41:52;;;;;;;;;;;21.30;99.90;;;;;;4985954;28;20369;-73
2022/09/18 13:44:19;;;;;;;;;;;21.30;99.90;;;;;;4990743;28;20378;-74
2022/09/18 13:46:56;;;;;;;;;;;21.30;99.90;;;;;;4996643;28;19909;-74
2022/09/18 13:49:27;;;;;;;;;;;21.20;99.90;;;;;;4990572;28;20053;-73
2022/09/18 13:51:53;;;;;;;;;;;21.20;99.90;;;;;;4979653;28;20386;-74
2022/09/18 13:54:29;;;;;;;;;;;21.20;99.90;;;;;;4996298;28;19909;-73
2022/09/18 13:57:16;;;;;;;;;;;21.20;99.90;;;;;;4996095;28;19910;-73
2022/09/18 14:00:06;;;;;;;;;;;21.20;99.90;;;;;;4994889;28;19996;-73
2022/09/18 14:02:32;;;;;;;;;;;21.10;99.90;;;;;;4974630;28;19917;-73
2022/09/18 14:05:02;;;;;;;;;;;21.10;99.90;;;;;;4996553;28;19906;-74
2022/09/18 14:07:34;;;;;;;;;;;21.10;99.90;;;;;;4978673;28;19937;-74
2022/09/18 14:10:20;;;;;;;;;;;21.10;99.90;;;;;;4995828;28;20001;-75
2022/09/18 14:13:02;;;;;;;;;;;21.00;99.90;;;;;;4993867;28;20004;-73
2022/09/18 14:15:48;;;;;;;;;;;20.90;99.90;;;;;;4975028;28;19913;-73
2022/09/18 14:21:36;;;;;;;;;;;20.90;99.90;;;;;;4952672;28;20283;-74
2022/09/18 14:24:24;;;;;;;;;;;21.00;99.90;;;;;;4993652;28;20319;-74
2022/09/18 14:26:54;;;;;;;;;;;21.00;99.90;;;;;;4995340;28;20084;-74
2022/09/18 14:29:38;;;;;;;;;;;21.00;99.90;;;;;;4996228;28;20472;-74
2022/09/18 14:32:20;;;;;;;;;;;21.00;99.90;;;;;;4996324;28;20382;-73
2022/09/18 14:34:47;;;;;;;;;;;21.00;99.90;;;;;;4991668;28;19976;-74
2022/09/18 14:37:31;;;;;;;;;;;21.00;99.90;;;;;;4978338;28;19945;-74
2022/09/18 14:40:20;;;;;;;;;;;20.90;99.90;;;;;;4995327;28;19913;-73
2022/09/18 14:42:48;;;;;;;;;;;21.00;99.90;;;;;;4995504;28;19905;-74
2022/09/18 14:45:27;;;;;;;;;;;21.00;99.90;;;;;;4988754;28;19916;-74
2022/09/18 14:47:55;;;;;;;;;;;21.00;99.90;;;;;;4974093;28;20005;-74
2022/09/18 14:50:36;;;;;;;;;;;;;;;;;;;;;
2022/09/18 14:56:26;;;;;;;;;;;20.80;99.90;;;;;;4895672;29;20493;-73
2022/09/18 15:01:54;;;;;;;;;;;20.70;99.90;;;;;;4912553;28;20000;-73
2022/09/18 15:04:43;;;;;;;;;;;20.80;99.90;;;;;;4987174;28;19912;-74
2022/09/18 15:07:27;;;;;;;;;;;20.80;99.90;;;;;;4995008;28;20915;-74
2022/09/18 15:09:58;;;;;;;;;;;20.70;99.90;;;;;;4994521;28;19960;-74
2022/09/18 15:12:36;;;;;;;;;;;20.70;99.90;;;;;;4994121;28;20008;-74
2022/09/18 15:15:20;;;;;;;;;;;20.70;99.90;;;;;;4970178;28;19960;-74
2022/09/18 15:17:59;;;;;;;;;;;20.60;99.90;;;;;;4993426;28;19912;-74
2022/09/18 15:20:25;;;;;;;;;;;20.60;99.90;;;;;;4970934;28;19910;-74
2022/09/18 15:22:52;;;;;;;;;;;20.70;99.90;;;;;;4994885;28;19913;-74
2022/09/18 15:25:23;;;;;;;;;;;20.70;99.90;;;;;;4991443;28;20279;-75
2022/09/18 15:27:50;;;;;;;;;;;20.60;99.90;;;;;;4993701;28;20256;-74
2022/09/18 15:30:24;;;;;;;;;;;20.70;99.90;;;;;;4987287;28;19910;-75
2022/09/18 15:32:50;;;;;;;;;;;20.80;99.90;;;;;;4993997;28;19906;-73
2022/09/18 15:35:34;;;;;;;;;;;;;;;;;;;;;
2022/09/18 15:38:01;;;;;;;;;;;20.60;99.90;;;;;;4971802;28;19910;-74
2022/09/18 15:40:37;;;;;;;;;;;20.50;99.90;;;;;;4977077;28;19933;-75
2022/09/18 15:43:22;;;;;;;;;;;20.40;99.90;;;;;;4992651;28;20348;-74
2022/09/18 15:46:01;;;;;;;;;;;20.40;99.90;;;;;;4993692;28;19937;-74
2022/09/18 15:48:47;;;;;;;;;;;20.20;99.90;;;;;;4971424;28;19991;-75
2022/09/18 15:51:21;;;;;;;;;;;20.20;99.90;;;;;;4994657;28;19910;-74
2022/09/18 15:54:04;;;;;;;;;;;20.10;99.90;;;;;;4993177;28;20335;-73
2022/09/18 15:56:32;;;;;;;;;;;20.10;99.90;;;;;;4970330;28;19936;-73
2022/09/18 15:58:59;;;;;;;;;;;20.10;99.90;;;;;;4994117;28;19917;-75
2022/09/18 16:01:34;;;;;;;;;;;20.10;99.90;;;;;;4994684;28;20283;-74
2022/09/18 16:04:47;;;;;;;;;;;20.10;99.90;;;;;;4994128;28;19999;-74
2022/09/18 16:07:36;;;;;;;;;;;20.10;99.90;;;;;;4970205;28;19910;-74
2022/09/18 16:10:35;;;;;;;;;;;20.10;99.90;;;;;;4992879;28;19909;-74
2022/09/18 16:13:07;;;;;;;;;;;20.20;99.90;;;;;;4946981;28;20372;-74
2022/09/18 16:15:36;;;;;;;;;;;20.20;99.90;;;;;;4988694;28;19993;-75
2022/09/18 16:18:14;;;;;;;;;;;20.20;99.90;;;;;;4991787;28;19910;-74
2022/09/18 16:20:49;;;;;;;;;;;20.10;99.90;;;;;;4994002;28;19917;-73
2022/09/18 16:23:37;;;;;;;;;;;20.10;99.90;;;;;;4986602;28;19972;-74
2022/09/18 16:26:06;;;;;;;;;;;20.10;99.90;;;;;;4991853;28;19965;-74
2022/09/18 16:32:12;;;;;;;;;;;19.90;99.90;;;;;;4992299;28;19921;-74
2022/09/18 16:34:43;;;;;;;;;;;19.80;99.90;;;;;;4962468;28;20039;-74
2022/09/18 16:37:40;;;;;;;;;;;19.80;99.90;;;;;;4976083;28;19922;-73
2022/09/18 16:40:26;;;;;;;;;;;19.70;99.90;;;;;;4993711;28;20256;-73
2022/09/18 16:42:57;;;;;;;;;;;19.70;99.90;;;;;;4994484;28;20021;-74
2022/09/18 16:45:28;;;;;;;;;;;19.60;99.90;;;;;;4992676;28;19920;-74
2022/09/18 16:47:55;;;;;;;;;;;19.50;99.90;;;;;;4997238;28;19910;-73
2022/09/18 16:50:30;;;;;;;;;;;19.50;99.90;;;;;;4996935;28;20035;-74
2022/09/18 16:53:07;;;;;;;;;;;19.40;99.90;;;;;;4980669;28;19960;-73
2022/09/18 16:55:37;;;;;;;;;;;19.40;99.90;;;;;;4990463;28;19921;-73
2022/09/18 16:58:03;;;;;;;;;;;19.30;99.90;;;;;;4978852;28;19929;-73
2022/09/18 17:00:29;;;;;;;;;;;19.20;99.90;;;;;;4993324;28;19964;-73
2022/09/18 17:02:56;;;;;;;;;;;19.20;99.90;;;;;;4998532;28;19912;-74
2022/09/18 17:05:25;;;;;;;;;;;19.20;99.90;;;;;;4972444;28;19910;-74
2022/09/18 17:07:53;;;;;;;;;;;19.00;99.90;;;;;;4977238;28;19924;-73
2022/09/18 17:10:19;;;;;;;;;;;19.00;99.90;;;;;;4994142;28;19968;-75
2022/09/18 17:12:47;;;;;;;;;;;19.00;99.90;;;;;;4997567;28;20004;-75
2022/09/18 17:15:13;;;;;;;;;;;19.00;99.90;;;;;;4995994;28;20410;-75
2022/09/18 17:17:39;;;;;;;;;;;18.90;99.90;;;;;;4995597;28;19935;-76
2022/09/18 17:20:05;;;;;;;;;;;18.80;99.90;;;;;;4995917;28;19932;-76
2022/09/18 17:22:33;;;;;;;;;;;18.70;99.90;;;;;;4994312;28;20003;-75
2022/09/18 17:24:59;;;;;;;;;;;18.60;99.90;;;;;;4991569;28;19910;-72
2022/09/18 17:27:28;;;;;;;;;;;18.60;99.90;;;;;;4996686;28;19912;-74
2022/09/18 17:29:54;;;;;;;;;;;18.60;99.90;;;;;;4993033;28;19956;-74
2022/09/18 17:32:20;;;;;;;;;;;18.50;99.90;;;;;;4999537;28;20346;-74
2022/09/18 17:34:59;;;;;;;;;;;18.50;99.90;;;;;;5005055;28;19941;-74
2022/09/18 17:37:29;;;;;;;;;;;18.40;99.90;;;;;;4984024;28;19913;-75
2022/09/18 17:40:18;;;;;;;;;;;18.30;99.90;;;;;;5006602;28;20284;-75
2022/09/18 17:43:15;;;;;;;;;;;18.20;99.90;;;;;;4999677;28;20001;-75
2022/09/18 17:45:44;;;;;;;;;;;18.20;99.90;;;;;;4996602;28;19917;-74
2022/09/18 17:48:10;;;;;;;;;;;18.30;99.90;;;;;;4994993;28;19916;-74
2022/09/18 17:50:36;;;;;;;;;;;18.20;99.90;;;;;;4993746;28;19909;-74
2022/09/18 17:53:02;;;;;;;;;;;18.30;99.90;;;;;;4995889;28;19910;-74
2022/09/18 17:58:45;;;;;;;;;;;18.20;99.90;;;;;;4900988;29;19919;-79
2022/09/18 18:08:04;;;;;;;;;;;18.60;99.90;;;;;;4800611;29;19960;-78
2022/09/18 18:11:03;;;;;;;;;;;;;;;;;;;;;
2022/09/18 18:13:46;;;;;;;;;;;18.60;99.90;;;;;;4810980;29;19967;-78
2022/09/18 18:16:34;;;;;;;;;;;18.60;99.90;;;;;;4853888;29;19920;-78
2022/09/18 18:19:34;;;;;;;;;;;18.50;99.90;;;;;;4814355;29;19913;-78
2022/09/18 18:22:28;;;;;;;;;;;18.50;99.90;;;;;;4849826;29;19914;-78
2022/09/18 18:25:41;;;;;;;;;;;18.50;99.90;;;;;;4998343;28;19909;-78
2022/09/18 18:31:49;;;;;;;;;;;;;;;;;;;;;
2022/09/18 18:34:26;;;;;;;;;;;18.30;99.90;;;;;;4998703;28;19944;-78
2022/09/18 18:46:28;;;;;;;;;;;;;;;;;;;;;
2022/09/18 18:49:01;;;;;;;;;;;18.20;99.90;;;;;;4926151;28;19991;-78
2022/09/18 18:51:31;;;;;;;;;;;18.20;99.90;;;;;;4995679;28;19949;-78
2022/09/18 18:54:01;;;;;;;;;;;18.10;99.90;;;;;;4999619;28;19921;-77
2022/09/18 18:59:45;;;;;;;;;;;18.00;99.90;;;;;;4996963;28;19933;-78
2022/09/18 19:05:23;;;;;;;;;;;18.00;99.90;;;;;;4996313;28;19928;-78
2022/09/18 19:08:29;;;;;;;;;;;;;;;;;;;;;
2022/09/18 19:24:17;;;;;;;;;;;;;;;;;;;;;
2022/09/18 19:27:37;;;;;;;;;;;;;;;;;;;;;
2022/09/18 19:30:50;;;;;;;;;;;;;;;;;;;;;
2022/09/18 19:36:51;;;;;;;;;;;17.80;99.90;;;;;;4796541;29;20058;-79
2022/09/18 19:39:47;;;;;;;;;;;17.80;99.90;;;;;;4852484;29;19919;-78
2022/09/18 19:45:38;;;;;;;;;;;17.80;99.90;;;;;;4848203;29;19920;-77
2022/09/18 19:48:06;;;;;;;;;;;17.80;99.90;;;;;;4898680;29;20375;-79
2022/09/18 19:50:53;;;;;;;;;;;17.60;99.90;;;;;;4904436;29;19952;-78
2022/09/18 19:53:39;;;;;;;;;;;17.60;99.90;;;;;;4900463;29;19996;-78
2022/09/18 20:05:58;;;;;;;;;;;17.60;99.90;;;;;;4971618;29;19972;-77
2022/09/18 20:14:52;;;;;;;;;;;17.50;99.90;;;;;;4943879;29;19938;-78
2022/09/18 20:23:39;;;;;;;;;;;17.50;99.90;;;;;;4952472;29;19926;-78
2022/09/18 20:45:07;;;;;;;;;;;16.90;99.90;;;;;;4799752;29;20429;-78
2022/09/18 20:51:23;;;;;;;;;;;;;;;;;;;;;
2022/09/18 21:03:42;;;;;;;;;;;16.70;99.90;;;;;;4754301;30;19940;-78
2022/09/18 21:09:41;;;;;;;;;;;16.70;99.90;;;;;;4717511;30;19957;-79
2022/09/18 23:16:56;;;;;;;;;;;;;;;;;;;;;
2022/09/18 23:54:39;;;;;;;;;;;16.40;99.90;;;;;;4775384;29;19920;-78
